createdAt,value
2017-02-04T00:00:53.662Z,0
2017-02-04T00:02:04.030Z,0
2017-02-04T00:03:14.826Z,0
2017-02-04T00:04:25.575Z,0
2017-02-04T00:05:36.040Z,0
2017-02-04T00:06:46.789Z,0
2017-02-04T00:07:57.169Z,0
2017-02-04T00:09:07.928Z,0
2017-02-04T00:10:18.295Z,0
2017-02-04T00:11:29.051Z,0
2017-02-04T00:12:39.013Z,0
2017-02-04T00:13:49.385Z,0
2017-02-04T00:14:59.744Z,0
2017-02-04T00:16:09.706Z,0
2017-02-04T00:17:20.043Z,0
2017-02-04T00:18:30.799Z,0
2017-02-04T00:19:41.156Z,0
2017-02-04T00:20:51.924Z,0
2017-02-04T00:22:02.669Z,0
2017-02-04T00:23:13.417Z,0
2017-02-04T00:24:23.984Z,0
2017-02-04T00:25:34.730Z,0
2017-02-04T00:26:45.468Z,0
2017-02-04T00:27:56.224Z,0
2017-02-04T00:29:06.961Z,0
2017-02-04T00:30:17.316Z,0
2017-02-04T00:31:27.659Z,0
2017-02-04T00:32:37.615Z,0
2017-02-04T00:33:47.976Z,0
2017-02-04T00:34:58.724Z,0
2017-02-04T00:36:08.680Z,0
2017-02-04T00:37:19.030Z,0
2017-02-04T00:38:28.980Z,0
2017-02-04T00:39:39.733Z,0
2017-02-04T00:40:49.693Z,0
2017-02-04T00:42:00.454Z,0
2017-02-04T00:43:10.834Z,0
2017-02-04T00:44:20.838Z,0
2017-02-04T00:45:31.179Z,0
2017-02-04T00:46:41.916Z,0
2017-02-04T00:47:52.677Z,0
2017-02-04T00:49:02.628Z,0
2017-02-04T00:50:12.960Z,0
2017-02-04T00:51:22.932Z,0
2017-02-04T00:52:33.542Z,0
2017-02-04T00:53:43.909Z,0
2017-02-04T00:54:54.662Z,0
2017-02-04T00:56:05.017Z,0
2017-02-04T00:57:15.760Z,0
2017-02-04T00:58:25.718Z,0
2017-02-04T00:59:36.478Z,0
2017-02-04T01:00:47.217Z,0
2017-02-04T01:01:57.963Z,0
2017-02-04T01:03:08.308Z,0
2017-02-04T01:04:18.660Z,0
2017-02-04T01:05:29.060Z,0
2017-02-04T01:06:39.793Z,0
2017-02-04T01:07:50.537Z,0
2017-02-04T01:09:00.097Z,0
2017-02-04T01:10:10.848Z,0
2017-02-04T01:11:21.197Z,0
2017-02-04T01:12:31.153Z,0
2017-02-04T01:13:41.903Z,0
2017-02-04T01:14:52.658Z,0
2017-02-04T01:16:03.408Z,0
2017-02-04T01:17:13.761Z,0
2017-02-04T01:18:24.508Z,0
2017-02-04T01:19:34.903Z,0
2017-02-04T01:20:44.865Z,0
2017-02-04T01:21:55.622Z,0
2017-02-04T01:23:05.997Z,0
2017-02-04T01:24:16.352Z,0
2017-02-04T01:25:27.091Z,0
2017-02-04T01:26:37.845Z,0
2017-02-04T01:27:48.858Z,0
2017-02-04T01:28:59.207Z,0
2017-02-04T01:30:09.150Z,0
2017-02-04T01:31:19.109Z,0
2017-02-04T01:32:29.065Z,0
2017-02-04T01:33:39.920Z,0
2017-02-04T01:34:50.266Z,0
2017-02-04T01:36:01.020Z,0
2017-02-04T01:37:11.780Z,0
2017-02-04T01:38:22.151Z,0
2017-02-04T01:39:32.904Z,0
2017-02-04T01:40:43.257Z,0
2017-02-04T01:41:53.997Z,0
2017-02-04T01:43:04.355Z,0
2017-02-04T01:44:14.715Z,0
2017-02-04T01:45:25.511Z,0
2017-02-04T01:46:36.253Z,0
2017-02-04T01:47:46.200Z,0
2017-02-04T01:48:56.149Z,0
2017-02-04T01:50:06.517Z,0
2017-02-04T01:51:17.266Z,0
2017-02-04T01:52:27.997Z,0
2017-02-04T01:53:38.738Z,0
2017-02-04T01:54:49.090Z,0
2017-02-04T01:55:59.448Z,0
2017-02-04T01:57:10.179Z,0
2017-02-04T01:58:20.907Z,0
2017-02-04T01:59:30.863Z,0
2017-02-04T02:00:40.823Z,0
2017-02-04T02:01:51.570Z,0
2017-02-04T02:03:01.546Z,0
2017-02-04T02:04:12.287Z,0
2017-02-04T02:05:22.626Z,0
2017-02-04T02:06:32.970Z,0
2017-02-04T02:07:42.934Z,0
2017-02-04T02:08:52.897Z,0
2017-02-04T02:10:03.637Z,0
2017-02-04T02:11:14.376Z,0
2017-02-04T02:12:24.733Z,0
2017-02-04T02:13:35.085Z,0
2017-02-04T02:14:45.427Z,0
2017-02-04T02:15:55.797Z,0
2017-02-04T02:17:06.545Z,0
2017-02-04T02:18:16.498Z,0
2017-02-04T02:19:27.242Z,0
2017-02-04T02:20:37.985Z,0
2017-02-04T02:21:48.751Z,0
2017-02-04T02:22:59.507Z,0
2017-02-04T02:24:10.247Z,0
2017-02-04T02:25:20.997Z,0
2017-02-04T02:26:31.344Z,0
2017-02-04T02:27:42.082Z,0
2017-02-04T02:28:52.034Z,0
2017-02-04T02:30:02.398Z,0
2017-02-04T02:31:13.171Z,0
2017-02-04T02:32:23.936Z,0
2017-02-04T02:33:34.683Z,0
2017-02-04T02:34:44.632Z,0
2017-02-04T02:35:55.367Z,0
2017-02-04T02:37:05.724Z,0
2017-02-04T02:38:15.661Z,0
2017-02-04T02:39:25.618Z,0
2017-02-04T02:40:36.399Z,0
2017-02-04T02:41:46.962Z,0
2017-02-04T02:42:57.700Z,0
2017-02-04T02:44:07.658Z,0
2017-02-04T02:45:18.451Z,0
2017-02-04T02:46:29.184Z,0
2017-02-04T02:47:39.540Z,0
2017-02-04T02:48:49.898Z,0
2017-02-04T02:50:00.643Z,0
2017-02-04T02:51:10.209Z,0
2017-02-04T02:52:20.569Z,0
2017-02-04T02:53:30.918Z,0
2017-02-04T02:54:41.265Z,0
2017-02-04T02:55:50.845Z,0
2017-02-04T02:57:01.570Z,0
2017-02-04T02:58:12.303Z,0
2017-02-04T02:59:23.051Z,0
2017-02-04T03:00:33.409Z,0
2017-02-04T03:01:43.756Z,0
2017-02-04T03:33:30.494Z,0
2017-02-04T03:34:41.224Z,0
2017-02-04T03:35:51.955Z,0
2017-02-04T03:37:02.702Z,0
2017-02-04T03:38:13.435Z,0
2017-02-04T03:39:24.180Z,0
2017-02-04T03:40:34.555Z,0
2017-02-04T03:41:45.294Z,0
2017-02-04T03:42:55.639Z,0
2017-02-04T03:44:05.977Z,0
2017-02-04T03:45:16.709Z,0
2017-02-04T03:46:27.496Z,0
2017-02-04T03:47:38.234Z,0
2017-02-04T03:48:48.973Z,0
2017-02-04T03:49:58.530Z,0
2017-02-04T03:51:09.263Z,0
2017-02-04T03:52:19.458Z,0
2017-02-04T03:53:30.201Z,0
2017-02-04T03:54:40.543Z,0
2017-02-04T03:55:50.490Z,0
2017-02-04T03:57:00.833Z,0
2017-02-04T03:58:11.573Z,0
2017-02-04T03:59:21.133Z,0
2017-02-04T04:00:31.488Z,0
2017-02-04T04:01:42.233Z,4
2017-02-04T04:02:52.593Z,4
2017-02-04T04:04:03.337Z,4
2017-02-04T04:05:13.300Z,4
2017-02-04T04:06:24.025Z,4
2017-02-04T04:07:34.779Z,4
2017-02-04T04:08:45.519Z,4
2017-02-04T04:09:56.273Z,4
2017-02-04T04:11:06.223Z,4
2017-02-04T04:12:16.968Z,4
2017-02-04T04:13:27.716Z,4
2017-02-04T04:14:38.457Z,4
2017-02-04T04:15:49.213Z,4
2017-02-04T04:16:59.963Z,4
2017-02-04T04:18:10.698Z,4
2017-02-04T04:19:21.454Z,4
2017-02-04T04:20:32.202Z,4
2017-02-04T04:21:42.937Z,4
2017-02-04T04:22:53.690Z,4
2017-02-04T04:24:03.657Z,4
2017-02-04T04:25:14.401Z,4
2017-02-04T04:26:24.750Z,4
2017-02-04T04:27:35.101Z,4
2017-02-04T04:28:45.885Z,4
2017-02-04T04:29:56.238Z,4
2017-02-04T04:31:06.986Z,4
2017-02-04T04:32:17.327Z,4
2017-02-04T04:33:27.279Z,4
2017-02-04T04:34:37.841Z,4
2017-02-04T04:35:47.400Z,4
2017-02-04T04:36:57.359Z,4
2017-02-04T04:38:07.705Z,4
2017-02-04T04:39:18.465Z,4
2017-02-04T04:40:28.814Z,4
2017-02-04T04:41:39.558Z,4
2017-02-04T04:42:49.895Z,4
2017-02-04T04:44:00.241Z,4
2017-02-04T04:45:10.598Z,4
2017-02-04T04:46:21.351Z,4
2017-02-04T04:47:31.710Z,4
2017-02-04T04:48:42.059Z,4
2017-02-04T04:49:52.805Z,4
2017-02-04T04:51:03.553Z,4
2017-02-04T04:52:14.331Z,4
2017-02-04T04:53:25.066Z,4
2017-02-04T04:54:35.416Z,4
2017-02-04T04:55:46.179Z,4
2017-02-04T04:56:56.918Z,4
2017-02-04T04:58:07.675Z,4
2017-02-04T04:59:18.028Z,4
2017-02-04T05:00:28.378Z,4
2017-02-04T05:01:39.130Z,4
2017-02-04T05:02:49.103Z,4
2017-02-04T05:03:59.464Z,4
2017-02-04T05:05:10.202Z,4
2017-02-04T05:06:20.548Z,4
2017-02-04T05:07:31.287Z,4
2017-02-04T05:08:41.622Z,4
2017-02-04T05:09:51.978Z,4
2017-02-04T05:11:02.334Z,4
2017-02-04T05:12:12.685Z,4
2017-02-04T05:13:23.074Z,4
2017-02-04T05:14:33.420Z,4
2017-02-04T05:15:44.011Z,4
2017-02-04T05:16:53.968Z,4
2017-02-04T05:18:04.321Z,4
2017-02-04T05:19:14.664Z,4
2017-02-04T05:20:25.415Z,4
2017-02-04T05:21:36.146Z,4
2017-02-04T05:22:46.483Z,4
2017-02-04T05:23:56.838Z,4
2017-02-04T05:25:06.799Z,4
2017-02-04T05:26:17.590Z,4
2017-02-04T05:27:27.941Z,4
2017-02-04T05:28:38.296Z,4
2017-02-04T05:29:49.045Z,4
2017-02-04T05:30:59.410Z,4
2017-02-04T05:32:09.382Z,4
2017-02-04T05:33:20.119Z,4
2017-02-04T05:34:30.466Z,4
2017-02-04T05:35:41.226Z,4
2017-02-04T05:36:51.984Z,4
2017-02-04T05:38:02.751Z,4
2017-02-04T05:39:12.707Z,4
2017-02-04T05:40:23.469Z,4
2017-02-04T05:41:33.824Z,0
2017-02-04T05:42:44.186Z,0
2017-02-04T05:43:54.548Z,0
2017-02-04T05:45:04.895Z,0
2017-02-04T05:46:15.648Z,4
2017-02-04T05:47:26.396Z,4
2017-02-04T05:48:36.745Z,4
2017-02-04T05:49:47.512Z,4
2017-02-04T05:50:58.258Z,4
2017-02-04T05:52:08.221Z,8
2017-02-04T05:53:18.956Z,8
2017-02-04T05:54:29.309Z,8
2017-02-04T05:55:38.472Z,8
2017-02-04T05:56:48.815Z,8
2017-02-04T05:57:59.172Z,12
2017-02-04T05:59:09.932Z,16
2017-02-04T06:00:20.298Z,16
2017-02-04T06:01:30.681Z,20
2017-02-04T06:02:41.031Z,24
2017-02-04T06:03:51.780Z,28
2017-02-04T06:05:01.754Z,36
2017-02-04T06:06:12.492Z,40
2017-02-04T06:07:22.845Z,48
2017-02-04T06:08:33.605Z,60
2017-02-04T06:09:44.343Z,72
2017-02-04T06:10:54.333Z,84
2017-02-04T06:12:05.077Z,100
2017-02-04T06:13:15.429Z,120
2017-02-04T06:14:26.029Z,140
2017-02-04T06:15:36.762Z,160
2017-02-04T06:16:47.541Z,184
2017-02-04T06:17:58.296Z,204
2017-02-04T06:19:09.036Z,224
2017-02-04T06:20:19.793Z,244
2017-02-04T06:21:30.539Z,268
2017-02-04T06:22:40.494Z,292
2017-02-04T06:23:50.452Z,316
2017-02-04T06:25:00.019Z,344
2017-02-04T06:26:10.752Z,368
2017-02-04T06:27:21.493Z,376
2017-02-04T06:28:32.269Z,388
2017-02-04T06:29:42.615Z,404
2017-02-04T06:30:52.578Z,432
2017-02-04T06:32:03.314Z,448
2017-02-04T06:33:13.665Z,440
2017-02-04T06:34:24.008Z,428
2017-02-04T06:35:34.355Z,428
2017-02-04T06:36:45.103Z,432
2017-02-04T06:37:55.860Z,448
2017-02-04T06:39:06.600Z,476
2017-02-04T06:40:17.392Z,504
2017-02-04T06:41:28.144Z,520
2017-02-04T06:42:38.491Z,516
2017-02-04T06:43:48.832Z,516
2017-02-04T06:44:59.178Z,520
2017-02-04T06:46:09.921Z,524
2017-02-04T06:47:20.277Z,536
2017-02-04T06:48:30.689Z,544
2017-02-04T06:49:41.433Z,556
2017-02-04T06:50:51.792Z,564
2017-02-04T06:52:02.540Z,580
2017-02-04T06:53:12.910Z,584
2017-02-04T06:54:23.258Z,592
2017-02-04T06:55:33.224Z,600
2017-02-04T06:56:43.970Z,608
2017-02-04T06:57:54.714Z,616
2017-02-04T06:59:05.464Z,628
2017-02-04T07:00:16.220Z,640
2017-02-04T07:01:26.958Z,648
2017-02-04T07:02:37.305Z,656
2017-02-04T07:03:47.661Z,664
2017-02-04T07:04:58.017Z,672
2017-02-04T07:06:07.960Z,664
2017-02-04T07:07:18.692Z,660
2017-02-04T07:08:29.437Z,664
2017-02-04T07:09:39.394Z,672
2017-02-04T07:10:50.170Z,680
2017-02-04T07:12:00.532Z,684
2017-02-04T07:13:10.498Z,684
2017-02-04T07:14:20.856Z,684
2017-02-04T07:15:30.818Z,680
2017-02-04T07:16:41.574Z,672
2017-02-04T07:17:52.346Z,656
2017-02-04T07:19:03.088Z,648
2017-02-04T07:20:13.841Z,644
2017-02-04T07:21:24.585Z,640
2017-02-04T07:22:34.536Z,644
2017-02-04T07:23:44.501Z,652
2017-02-04T07:24:55.256Z,668
2017-02-04T07:26:05.993Z,688
2017-02-04T07:27:16.740Z,708
2017-02-04T07:28:27.495Z,720
2017-02-04T07:29:37.843Z,724
2017-02-04T07:30:48.210Z,736
2017-02-04T07:31:58.569Z,732
2017-02-04T07:33:09.314Z,732
2017-02-04T07:34:19.269Z,732
2017-02-04T07:35:29.660Z,740
2017-02-04T07:36:40.407Z,744
2017-02-04T07:37:51.161Z,768
2017-02-04T07:39:01.905Z,784
2017-02-04T07:40:12.673Z,800
2017-02-04T07:41:23.404Z,820
2017-02-04T07:42:33.794Z,848
2017-02-04T07:43:43.757Z,864
2017-02-04T07:44:54.507Z,884
2017-02-04T07:46:05.271Z,892
2017-02-04T07:47:16.025Z,900
2017-02-04T07:48:26.379Z,912
2017-02-04T07:49:36.747Z,928
2017-02-04T07:50:47.090Z,944
2017-02-04T07:51:57.431Z,960
2017-02-04T07:53:07.801Z,976
2017-02-04T07:54:18.160Z,992
2017-02-04T07:55:28.904Z,1008
2017-02-04T07:56:39.307Z,1032
2017-02-04T07:57:50.054Z,1064
2017-02-04T07:59:00.014Z,1096
2017-02-04T08:00:10.767Z,1128
2017-02-04T08:01:21.522Z,1156
2017-02-04T08:02:32.261Z,1188
2017-02-04T08:03:42.624Z,1220
2017-02-04T08:04:52.189Z,1256
2017-02-04T08:06:02.545Z,1288
2017-02-04T08:07:13.290Z,1340
2017-02-04T08:08:24.054Z,1396
2017-02-04T08:09:34.419Z,1448
2017-02-04T08:10:45.195Z,1516
2017-02-04T08:11:55.944Z,1588
2017-02-04T08:13:06.305Z,1644
2017-02-04T08:14:17.067Z,1680
2017-02-04T08:15:27.853Z,1688
2017-02-04T08:16:38.609Z,1688
2017-02-04T08:17:48.173Z,1688
2017-02-04T08:18:58.929Z,1684
2017-02-04T08:20:09.300Z,1680
2017-02-04T08:21:19.667Z,1688
2017-02-04T08:22:30.413Z,1708
2017-02-04T08:23:41.156Z,1740
2017-02-04T08:24:51.508Z,1776
2017-02-04T08:26:01.474Z,1812
2017-02-04T08:27:11.831Z,1844
2017-02-04T08:28:22.178Z,1892
2017-02-04T08:29:32.926Z,1944
2017-02-04T08:30:42.894Z,1996
2017-02-04T08:31:53.652Z,2048
2017-02-04T08:33:04.013Z,2088
2017-02-04T08:34:14.966Z,2124
2017-02-04T08:35:25.732Z,2152
2017-02-04T08:36:36.487Z,2192
2017-02-04T08:37:46.443Z,2232
2017-02-04T08:38:56.811Z,2288
2017-02-04T08:40:07.184Z,2356
2017-02-04T08:41:17.529Z,2448
2017-02-04T08:42:27.889Z,2544
2017-02-04T08:43:38.244Z,2636
2017-02-04T08:44:49.027Z,2708
2017-02-04T08:45:59.799Z,2768
2017-02-04T08:47:10.164Z,2828
2017-02-04T08:48:20.126Z,2884
2017-02-04T08:49:30.482Z,2964
2017-02-04T08:50:40.840Z,3048
2017-02-04T08:51:51.596Z,3128
2017-02-04T08:53:01.969Z,3184
2017-02-04T08:54:12.731Z,3240
2017-02-04T08:55:23.527Z,3292
2017-02-04T08:56:33.886Z,3320
2017-02-04T08:57:44.902Z,3384
2017-02-04T08:58:55.662Z,3456
2017-02-04T09:00:05.625Z,3532
2017-02-04T09:01:16.377Z,3548
2017-02-04T09:02:27.161Z,3496
2017-02-04T09:03:37.910Z,3424
2017-02-04T09:04:48.262Z,3352
2017-02-04T09:05:59.017Z,3304
2017-02-04T09:07:09.762Z,3312
2017-02-04T09:08:20.120Z,3352
2017-02-04T09:09:30.879Z,3392
2017-02-04T09:10:41.632Z,3424
2017-02-04T09:11:52.003Z,3468
2017-02-04T09:13:02.361Z,3536
2017-02-04T09:14:12.705Z,3636
2017-02-04T09:15:23.065Z,3732
2017-02-04T09:16:33.806Z,3792
2017-02-04T09:17:44.187Z,3824
2017-02-04T09:18:54.946Z,3844
2017-02-04T09:20:04.964Z,3848
2017-02-04T09:21:14.956Z,3828
2017-02-04T09:22:25.325Z,3756
2017-02-04T09:23:36.082Z,3640
2017-02-04T09:24:46.835Z,3472
2017-02-04T09:25:57.181Z,3312
2017-02-04T09:27:07.936Z,3176
2017-02-04T09:28:17.510Z,3068
2017-02-04T09:29:28.271Z,2968
2017-02-04T09:30:39.011Z,2924
2017-02-04T09:31:48.984Z,2904
2017-02-04T09:32:59.352Z,2912
2017-02-04T09:34:09.721Z,2940
2017-02-04T09:35:20.059Z,3004
2017-02-04T09:36:30.812Z,3112
2017-02-04T09:37:41.202Z,3244
2017-02-04T09:38:51.551Z,3376
2017-02-04T09:40:02.299Z,3512
2017-02-04T09:41:12.284Z,3676
2017-02-04T09:42:22.635Z,3848
2017-02-04T09:43:33.000Z,3972
2017-02-04T09:44:43.757Z,4020
2017-02-04T09:45:54.519Z,4000
2017-02-04T09:47:04.867Z,3944
2017-02-04T09:48:15.270Z,3920
2017-02-04T09:49:26.035Z,3964
2017-02-04T09:50:36.825Z,4048
2017-02-04T09:51:47.576Z,4128
2017-02-04T09:52:58.312Z,4188
2017-02-04T09:54:08.681Z,4252
2017-02-04T09:55:19.040Z,4340
2017-02-04T09:56:29.406Z,4460
2017-02-04T09:57:39.383Z,4592
2017-02-04T09:58:50.386Z,4720
2017-02-04T10:00:01.137Z,4820
2017-02-04T10:01:11.493Z,4904
2017-02-04T10:02:22.252Z,5000
2017-02-04T10:03:32.990Z,5140
2017-02-04T10:04:43.378Z,5344
2017-02-04T10:05:53.760Z,5596
2017-02-04T10:07:04.504Z,5868
2017-02-04T10:08:14.862Z,6128
2017-02-04T10:09:25.204Z,6344
2017-02-04T10:10:35.968Z,6528
2017-02-04T10:11:46.743Z,6756
2017-02-04T10:12:57.103Z,7008
2017-02-04T10:14:07.087Z,7292
2017-02-04T10:15:17.052Z,7612
2017-02-04T10:16:27.809Z,7896
2017-02-04T10:17:38.153Z,8096
2017-02-04T10:18:48.504Z,8184
2017-02-04T10:19:58.859Z,8196
2017-02-04T10:21:09.242Z,8192
2017-02-04T10:22:19.198Z,8244
2017-02-04T10:23:29.556Z,8388
2017-02-04T10:24:39.912Z,8560
2017-02-04T10:25:50.272Z,8672
2017-02-04T10:27:00.245Z,8708
2017-02-04T10:28:10.613Z,8708
2017-02-04T10:29:21.374Z,8712
2017-02-04T10:30:31.726Z,8716
2017-02-04T10:31:41.688Z,8808
2017-02-04T10:32:52.044Z,9060
2017-02-04T10:34:02.399Z,9440
2017-02-04T10:35:13.148Z,10192
2017-02-04T10:36:23.514Z,10596
2017-02-04T10:37:34.297Z,10572
2017-02-04T10:38:44.691Z,10352
2017-02-04T10:39:55.441Z,10332
2017-02-04T10:41:05.406Z,10196
2017-02-04T10:42:16.155Z,9960
2017-02-04T10:43:26.145Z,9608
2017-02-04T10:44:36.901Z,9120
2017-02-04T10:45:47.657Z,8688
2017-02-04T10:46:57.611Z,8448
2017-02-04T10:48:08.387Z,8356
2017-02-04T10:49:19.157Z,8336
2017-02-04T10:50:29.918Z,8340
2017-02-04T10:51:40.681Z,8368
2017-02-04T10:52:51.053Z,8436
2017-02-04T10:54:02.052Z,8572
2017-02-04T10:55:11.221Z,9244
2017-02-04T10:56:21.999Z,8884
2017-02-04T10:57:32.401Z,9004
2017-02-04T10:58:42.810Z,8984
2017-02-04T10:59:53.178Z,10400
2017-02-04T11:01:03.935Z,9192
2017-02-04T11:02:14.682Z,8856
2017-02-04T11:03:24.651Z,9332
2017-02-04T11:04:34.620Z,9552
2017-02-04T11:05:45.370Z,9096
2017-02-04T11:06:56.124Z,11164
2017-02-04T11:08:06.096Z,10192
2017-02-04T11:09:16.053Z,9752
2017-02-04T11:10:26.420Z,9776
2017-02-04T11:11:37.212Z,8632
2017-02-04T11:12:47.573Z,7120
2017-02-04T11:13:57.949Z,6040
2017-02-04T11:15:08.313Z,5708
2017-02-04T11:16:19.050Z,5644
2017-02-04T11:17:29.406Z,5960
2017-02-04T11:18:39.773Z,6480
2017-02-04T11:19:50.524Z,6448
2017-02-04T11:21:00.882Z,6580
2017-02-04T11:22:11.242Z,6668
2017-02-04T11:23:22.005Z,6876
2017-02-04T11:24:32.750Z,7076
2017-02-04T11:25:43.108Z,7180
2017-02-04T11:26:53.461Z,7112
2017-02-04T11:28:03.470Z,7408
2017-02-04T11:29:14.231Z,7316
2017-02-04T11:30:24.603Z,7276
2017-02-04T11:31:35.367Z,7036
2017-02-04T11:32:45.723Z,7252
2017-02-04T11:33:56.484Z,6648
2017-02-04T11:35:06.850Z,6968
2017-02-04T11:36:17.203Z,7544
2017-02-04T11:37:27.586Z,8040
2017-02-04T11:38:38.336Z,8284
2017-02-04T11:39:48.728Z,8304
2017-02-04T11:40:59.111Z,7512
2017-02-04T11:42:09.868Z,7216
2017-02-04T11:43:20.609Z,7220
2017-02-04T11:44:31.010Z,7404
2017-02-04T11:45:40.990Z,7344
2017-02-04T11:46:51.344Z,7212
2017-02-04T11:48:02.105Z,7128
2017-02-04T11:49:11.670Z,7160
2017-02-04T11:50:22.677Z,7296
2017-02-04T11:51:32.647Z,7504
2017-02-04T11:52:42.609Z,7684
2017-02-04T11:53:53.359Z,7716
2017-02-04T11:55:03.311Z,7860
2017-02-04T11:56:13.737Z,7780
2017-02-04T11:57:24.514Z,7764
2017-02-04T11:58:35.273Z,7756
2017-02-04T11:59:46.058Z,7596
2017-02-04T12:00:56.654Z,7368
2017-02-04T12:02:07.416Z,7364
2017-02-04T12:03:17.768Z,7420
2017-02-04T12:04:28.519Z,7536
2017-02-04T12:05:39.331Z,7656
2017-02-04T12:06:50.094Z,7852
2017-02-04T12:08:00.437Z,7796
2017-02-04T12:09:10.797Z,7900
2017-02-04T12:10:21.161Z,8036
2017-02-04T12:11:31.921Z,8268
2017-02-04T12:12:42.278Z,8088
2017-02-04T12:13:52.638Z,7996
2017-02-04T12:15:03.028Z,8140
2017-02-04T12:16:13.006Z,9940
2017-02-04T12:17:23.775Z,9880
2017-02-04T12:18:33.736Z,10248
2017-02-04T12:19:44.487Z,10808
2017-02-04T12:20:54.859Z,11180
2017-02-04T12:22:05.608Z,10852
2017-02-04T12:23:15.966Z,10428
2017-02-04T12:24:25.942Z,10904
2017-02-04T12:25:36.715Z,11000
2017-02-04T12:26:47.476Z,11048
2017-02-04T12:27:57.899Z,11036
2017-02-04T12:29:08.262Z,10964
2017-02-04T12:30:19.012Z,10780
2017-02-04T12:31:29.380Z,10612
2017-02-04T12:32:39.736Z,10432
2017-02-04T12:33:50.504Z,10376
2017-02-04T12:35:01.270Z,10396
2017-02-04T12:36:12.038Z,10340
2017-02-04T12:37:22.793Z,10276
2017-02-04T12:38:33.162Z,10168
2017-02-04T12:39:43.124Z,10116
2017-02-04T12:40:53.479Z,9960
2017-02-04T12:42:03.835Z,9852
2017-02-04T12:43:14.201Z,9796
2017-02-04T12:44:24.184Z,9848
2017-02-04T12:45:34.543Z,9880
2017-02-04T12:46:45.127Z,9788
2017-02-04T12:47:56.048Z,9652
2017-02-04T12:49:06.468Z,9672
2017-02-04T12:50:17.218Z,9632
2017-02-04T12:51:28.045Z,9560
2017-02-04T12:52:39.120Z,9508
2017-02-04T12:53:49.869Z,9432
2017-02-04T12:55:00.551Z,9372
2017-02-04T12:56:11.019Z,9412
2017-02-04T12:57:22.348Z,9400
2017-02-04T12:58:32.941Z,9192
2017-02-04T12:59:43.709Z,9224
2017-02-04T13:00:53.686Z,9204
2017-02-04T13:02:03.456Z,9180
2017-02-04T13:03:13.811Z,9084
2017-02-04T13:04:24.646Z,8852
2017-02-04T13:05:35.124Z,8804
2017-02-04T13:06:46.424Z,8444
2017-02-04T13:07:56.478Z,8644
2017-02-04T13:09:06.484Z,8560
2017-02-04T13:10:16.846Z,8320
2017-02-04T13:11:27.689Z,8400
2017-02-04T13:12:38.554Z,8248
2017-02-04T13:13:49.051Z,8280
2017-02-04T13:14:59.808Z,8264
2017-02-04T13:16:10.726Z,8120
2017-02-04T13:17:20.696Z,7976
2017-02-04T13:18:31.453Z,7832
2017-02-04T13:19:42.346Z,7808
2017-02-04T13:20:52.878Z,7796
2017-02-04T13:22:03.638Z,7760
2017-02-04T13:23:14.012Z,7768
2017-02-04T13:24:24.762Z,7696
2017-02-04T13:25:35.132Z,7608
2017-02-04T13:26:45.908Z,7544
2017-02-04T13:27:56.665Z,7500
2017-02-04T13:29:07.424Z,7424
2017-02-04T13:30:18.025Z,7372
2017-02-04T13:31:28.394Z,7256
2017-02-04T13:32:38.756Z,7216
2017-02-04T13:33:49.513Z,7148
2017-02-04T13:34:59.875Z,7044
2017-02-04T13:36:10.238Z,6976
2017-02-04T13:37:21.011Z,6908
2017-02-04T13:38:30.611Z,6880
2017-02-04T13:39:41.365Z,6868
2017-02-04T13:40:52.123Z,6816
2017-02-04T13:42:02.472Z,6732
2017-02-04T13:43:13.241Z,6632
2017-02-04T13:44:23.999Z,6628
2017-02-04T13:45:34.362Z,6560
2017-02-04T13:46:44.722Z,6508
2017-02-04T13:47:55.475Z,6496
2017-02-04T13:49:06.213Z,6488
2017-02-04T13:50:16.958Z,6436
2017-02-04T13:51:26.923Z,6328
2017-02-04T13:52:37.682Z,6264
2017-02-04T13:53:48.434Z,6172
2017-02-04T13:54:59.186Z,6144
2017-02-04T13:56:09.932Z,6012
2017-02-04T13:57:20.676Z,5968
2017-02-04T13:58:31.037Z,5888
2017-02-04T13:59:41.788Z,5796
2017-02-04T14:00:52.541Z,5648
2017-02-04T14:02:02.899Z,5616
2017-02-04T14:03:13.267Z,5552
2017-02-04T14:04:23.616Z,5524
2017-02-04T14:05:34.388Z,5452
2017-02-04T14:06:44.403Z,5420
2017-02-04T14:07:55.166Z,5376
2017-02-04T14:09:05.912Z,5268
2017-02-04T14:10:16.665Z,5120
2017-02-04T14:11:26.228Z,4848
2017-02-04T14:12:36.589Z,4888
2017-02-04T14:13:47.383Z,4812
2017-02-04T14:14:57.757Z,4708
2017-02-04T14:16:08.519Z,4672
2017-02-04T14:17:18.876Z,4756
2017-02-04T14:18:29.232Z,4656
2017-02-04T14:19:39.580Z,4532
2017-02-04T14:20:50.333Z,4288
2017-02-04T14:22:00.714Z,4220
2017-02-04T14:23:11.474Z,4196
2017-02-04T14:24:21.847Z,3960
2017-02-04T14:25:32.607Z,3760
2017-02-04T14:26:43.363Z,3396
2017-02-04T14:27:53.322Z,3080
2017-02-04T14:29:03.688Z,2672
2017-02-04T14:30:14.440Z,2392
2017-02-04T14:31:24.791Z,2232
2017-02-04T14:32:35.550Z,2468
2017-02-04T14:33:46.298Z,2616
2017-02-04T14:34:57.049Z,2772
2017-02-04T14:36:07.413Z,2916
2017-02-04T14:37:18.172Z,2876
2017-02-04T14:38:28.963Z,2808
2017-02-04T14:39:38.922Z,2736
2017-02-04T14:40:49.672Z,2648
2017-02-04T14:42:00.036Z,2516
2017-02-04T14:43:10.000Z,2296
2017-02-04T14:44:19.970Z,2204
2017-02-04T14:45:30.318Z,2072
2017-02-04T14:46:40.269Z,1988
2017-02-04T14:47:51.041Z,1992
2017-02-04T14:49:01.001Z,1960
2017-02-04T14:50:11.354Z,1940
2017-02-04T14:51:22.133Z,1896
2017-02-04T14:52:32.892Z,1880
2017-02-04T14:53:43.639Z,1848
2017-02-04T14:54:54.410Z,1772
2017-02-04T14:56:05.187Z,1696
2017-02-04T14:57:15.552Z,1684
2017-02-04T14:58:25.908Z,1652
2017-02-04T14:59:36.706Z,1584
2017-02-04T15:00:47.049Z,1556
2017-02-04T15:01:57.845Z,1440
2017-02-04T15:03:08.602Z,1340
2017-02-04T15:04:19.349Z,1256
2017-02-04T15:05:30.111Z,1200
2017-02-04T15:06:40.863Z,1156
2017-02-04T15:07:51.211Z,1124
2017-02-04T15:09:01.576Z,1096
2017-02-04T15:10:11.937Z,1072
2017-02-04T15:11:22.702Z,1048
2017-02-04T15:12:33.091Z,1032
2017-02-04T15:13:43.457Z,1020
2017-02-04T15:14:53.822Z,1008
2017-02-04T15:16:03.787Z,1000
2017-02-04T15:17:14.538Z,988
2017-02-04T15:18:24.909Z,980
2017-02-04T15:19:35.305Z,960
2017-02-04T15:20:46.044Z,948
2017-02-04T15:21:56.794Z,932
2017-02-04T15:23:07.555Z,904
2017-02-04T15:24:18.302Z,876
2017-02-04T15:25:29.057Z,848
2017-02-04T15:26:39.442Z,820
2017-02-04T15:27:49.822Z,784
2017-02-04T15:29:00.192Z,748
2017-02-04T15:30:10.953Z,712
2017-02-04T15:31:21.717Z,676
2017-02-04T15:32:32.448Z,640
2017-02-04T15:33:42.403Z,604
2017-02-04T15:34:53.150Z,568
2017-02-04T15:36:03.902Z,532
2017-02-04T15:37:13.872Z,500
2017-02-04T15:38:24.655Z,464
2017-02-04T15:39:35.418Z,440
2017-02-04T15:40:45.803Z,408
2017-02-04T15:41:56.550Z,380
2017-02-04T15:43:07.329Z,348
2017-02-04T15:44:17.935Z,316
2017-02-04T15:45:28.275Z,292
2017-02-04T15:46:39.010Z,264
2017-02-04T15:47:49.769Z,240
2017-02-04T15:48:59.725Z,216
2017-02-04T15:50:09.677Z,200
2017-02-04T15:51:19.644Z,184
2017-02-04T15:52:30.399Z,172
2017-02-04T15:53:42.668Z,156
2017-02-04T15:54:53.043Z,136
2017-02-04T15:56:03.390Z,116
2017-02-04T15:57:13.734Z,100
2017-02-04T15:58:24.086Z,92
2017-02-04T15:59:34.437Z,80
2017-02-04T16:00:44.402Z,76
2017-02-04T16:01:54.769Z,68
2017-02-04T16:03:05.543Z,60
2017-02-04T16:04:15.906Z,52
2017-02-04T16:05:25.858Z,40
2017-02-04T16:06:35.815Z,36
2017-02-04T16:07:46.169Z,28
2017-02-04T16:08:56.916Z,24
2017-02-04T16:10:07.268Z,20
2017-02-04T16:11:18.033Z,16
2017-02-04T16:12:28.794Z,16
2017-02-04T16:13:39.565Z,12
2017-02-04T16:14:50.329Z,12
2017-02-04T16:16:01.090Z,8
2017-02-04T16:17:11.852Z,8
2017-02-04T16:18:22.595Z,4
2017-02-04T16:19:32.574Z,4
2017-02-04T16:20:42.930Z,4
2017-02-04T16:21:53.330Z,4
2017-02-04T16:23:04.083Z,4
2017-02-04T16:24:14.456Z,4
2017-02-04T16:25:25.193Z,4
2017-02-04T16:26:35.148Z,0
2017-02-04T16:27:46.129Z,0
2017-02-04T16:28:56.878Z,0
2017-02-04T16:30:06.848Z,4
2017-02-04T16:31:17.602Z,4
2017-02-04T16:32:28.361Z,4
2017-02-04T16:33:39.098Z,4
2017-02-04T16:34:49.454Z,4
2017-02-04T16:36:00.241Z,4
2017-02-04T16:37:10.206Z,4
2017-02-04T16:38:20.969Z,4
2017-02-04T16:39:31.329Z,4
2017-02-04T16:40:41.678Z,4
2017-02-04T16:41:52.449Z,4
2017-02-04T16:43:02.814Z,4
2017-02-04T16:44:13.163Z,4
2017-02-04T16:45:23.525Z,4
2017-02-04T16:46:33.478Z,4
2017-02-04T16:47:43.844Z,4
2017-02-04T16:48:54.185Z,4
2017-02-04T16:50:04.940Z,4
2017-02-04T16:51:15.686Z,4